createdAt,value
2019-05-25T00:02:31.256Z,13
2019-05-25T00:07:31.449Z,11
2019-05-25T00:12:32.578Z,10
2019-05-25T00:17:31.294Z,14
2019-05-25T00:22:31.275Z,11
2019-05-25T00:27:31.300Z,10
2019-05-25T00:32:31.251Z,13
2019-05-25T00:37:31.238Z,13
2019-05-25T00:42:31.255Z,13
2019-05-25T00:47:31.204Z,13
2019-05-25T00:52:31.246Z,14
2019-05-25T00:57:31.184Z,13
2019-05-25T01:02:31.241Z,14
2019-05-25T01:07:31.242Z,12
2019-05-25T01:12:31.221Z,12
2019-05-25T01:17:31.178Z,13
2019-05-25T01:22:31.204Z,14
2019-05-25T01:27:31.209Z,24
2019-05-25T01:32:31.172Z,20
2019-05-25T01:37:31.166Z,19
2019-05-25T01:42:31.202Z,20
2019-05-25T01:47:31.182Z,17
2019-05-25T01:52:31.159Z,18
2019-05-25T01:57:31.205Z,20
2019-05-25T02:02:31.210Z,21
2019-05-25T02:07:31.756Z,23
2019-05-25T02:12:31.738Z,20
2019-05-25T02:17:31.759Z,24
2019-05-25T02:22:31.744Z,24
2019-05-25T02:27:31.749Z,43
2019-05-25T02:32:31.881Z,41
2019-05-25T02:37:32.304Z,30
2019-05-25T02:42:32.278Z,27
2019-05-25T02:47:32.329Z,24
2019-05-25T02:52:32.355Z,21
2019-05-25T02:57:36.852Z,20
2019-05-25T03:02:32.932Z,20
2019-05-25T03:07:32.889Z,19
2019-05-25T03:12:32.935Z,18
2019-05-25T03:17:32.887Z,22
2019-05-25T03:22:32.886Z,22
2019-05-25T03:27:32.857Z,24
2019-05-25T03:32:32.947Z,20
2019-05-25T03:37:32.890Z,23
2019-05-25T03:42:32.877Z,25
2019-05-25T03:47:32.882Z,25
2019-05-25T03:52:32.906Z,25
2019-05-25T03:57:32.840Z,30
2019-05-25T04:02:32.870Z,25
2019-05-25T04:07:32.841Z,25
2019-05-25T04:12:34.281Z,29
2019-05-25T04:17:32.834Z,27
2019-05-25T04:22:32.875Z,27
2019-05-25T04:27:32.839Z,28
2019-05-25T04:32:32.817Z,29
2019-05-25T04:37:32.846Z,27
2019-05-25T04:42:32.795Z,29
2019-05-25T04:47:33.529Z,30
2019-05-25T04:52:32.842Z,25
2019-05-25T04:57:33.323Z,26
2019-05-25T05:02:33.318Z,26
2019-05-25T05:07:33.365Z,24
2019-05-25T05:12:33.339Z,24
2019-05-25T05:17:33.443Z,25
2019-05-25T05:22:33.412Z,26
2019-05-25T05:27:33.377Z,22
2019-05-25T05:32:34.386Z,24
2019-05-25T05:37:33.328Z,25
2019-05-25T05:47:33.873Z,24
2019-05-25T05:52:33.859Z,22
2019-05-25T05:57:33.832Z,20
2019-05-25T06:02:33.914Z,22
2019-05-25T06:07:33.923Z,29
2019-05-25T06:12:33.884Z,22
2019-05-25T06:17:33.873Z,26
2019-05-25T06:22:33.901Z,22
2019-05-25T06:27:34.293Z,24
2019-05-25T06:32:33.884Z,26
2019-05-25T06:37:33.823Z,26
2019-05-25T06:42:33.832Z,29
2019-05-25T06:47:33.806Z,30
2019-05-25T06:52:33.868Z,29
2019-05-25T06:57:48.807Z,29
2019-05-25T07:02:33.818Z,27
2019-05-25T07:07:33.833Z,32
2019-05-25T07:12:33.851Z,31
2019-05-25T07:17:33.846Z,29
2019-05-25T07:22:33.826Z,29
2019-05-25T07:27:33.879Z,31
2019-05-25T07:32:33.794Z,31
2019-05-25T07:37:33.804Z,32
2019-05-25T07:42:33.804Z,31
2019-05-25T07:47:33.805Z,30
2019-05-25T07:52:33.755Z,33
2019-05-25T07:57:34.838Z,32
2019-05-25T08:02:33.832Z,29
2019-05-25T08:07:33.789Z,33
2019-05-25T08:12:33.805Z,30
2019-05-25T08:17:33.830Z,30
2019-05-25T08:22:33.760Z,33
2019-05-25T08:27:33.750Z,32
2019-05-25T08:32:33.740Z,32
2019-05-25T08:37:33.773Z,28
2019-05-25T08:42:33.748Z,31
2019-05-25T08:47:33.884Z,30
2019-05-25T08:52:33.803Z,30
2019-05-25T08:57:33.702Z,26
2019-05-25T09:02:33.738Z,26
2019-05-25T09:07:33.732Z,29
2019-05-25T09:12:33.687Z,25
2019-05-25T09:17:33.730Z,27
2019-05-25T09:22:33.672Z,26
2019-05-25T09:27:33.745Z,26
2019-05-25T09:32:33.765Z,25
2019-05-25T09:37:33.688Z,25
2019-05-25T09:42:33.716Z,26
2019-05-25T09:47:33.705Z,24
2019-05-25T09:52:33.683Z,23
2019-05-25T09:57:33.691Z,20
2019-05-25T10:02:33.711Z,29
2019-05-25T10:07:33.718Z,21
2019-05-25T10:12:33.691Z,27
2019-05-25T10:17:33.694Z,21
2019-05-25T10:22:33.718Z,25
2019-05-25T10:27:36.380Z,23
2019-05-25T10:32:33.632Z,21
2019-05-25T10:37:33.652Z,21
2019-05-25T10:42:33.676Z,22
2019-05-25T10:47:33.615Z,27
2019-05-25T10:52:33.714Z,18
2019-05-25T10:57:33.699Z,19
2019-05-25T11:02:33.650Z,20
2019-05-25T11:07:33.626Z,19
2019-05-25T11:12:33.631Z,26
2019-05-25T11:17:33.620Z,21
2019-05-25T11:22:33.673Z,25
2019-05-25T11:27:33.566Z,26
2019-05-25T11:32:33.622Z,22
2019-05-25T11:37:33.570Z,28
2019-05-25T11:42:33.597Z,25
2019-05-25T11:47:33.702Z,24
2019-05-25T11:52:33.663Z,26
2019-05-25T11:57:33.627Z,25
2019-05-25T12:02:33.552Z,29
2019-05-25T12:07:33.568Z,28
2019-05-25T12:12:33.554Z,27
2019-05-25T12:17:33.613Z,28
2019-05-25T12:22:33.574Z,31
2019-05-25T12:27:33.608Z,29
2019-05-25T12:32:33.574Z,27
2019-05-25T12:37:33.568Z,23
2019-05-25T12:42:33.614Z,19
2019-05-25T12:47:33.554Z,18
2019-05-25T12:52:33.541Z,20
2019-05-25T12:57:33.570Z,16
2019-05-25T13:02:33.668Z,15
2019-05-25T13:07:33.572Z,17
2019-05-25T13:12:33.556Z,20
2019-05-25T13:17:33.565Z,18
2019-05-25T13:22:33.539Z,21
2019-05-25T13:27:33.557Z,21
2019-05-25T13:32:33.746Z,16
2019-05-25T13:37:33.517Z,16
2019-05-25T13:42:33.595Z,19
2019-05-25T13:47:33.469Z,17
2019-05-25T13:52:33.498Z,21
2019-05-25T13:57:33.497Z,19
2019-05-25T14:02:33.524Z,22
2019-05-25T14:07:33.485Z,21
2019-05-25T14:12:33.536Z,24
2019-05-25T14:17:39.465Z,22
2019-05-25T14:22:33.479Z,23
2019-05-25T14:27:33.441Z,25
2019-05-25T14:32:35.004Z,22
2019-05-25T14:37:33.463Z,23
2019-05-25T14:42:33.467Z,25
2019-05-25T14:47:33.477Z,21
2019-05-25T14:52:33.471Z,24
2019-05-25T14:57:33.452Z,23
2019-05-25T15:02:33.477Z,26
2019-05-25T15:07:33.419Z,24
2019-05-25T15:12:33.418Z,23
2019-05-25T15:17:33.450Z,25
2019-05-25T15:22:33.402Z,25
2019-05-25T15:27:33.417Z,28
2019-05-25T15:32:33.431Z,23
2019-05-25T15:37:33.488Z,30
2019-05-25T15:42:33.419Z,23
2019-05-25T15:47:33.413Z,32
2019-05-25T15:52:33.372Z,24
2019-05-25T15:57:33.383Z,20
2019-05-25T16:02:43.116Z,17
2019-05-25T16:07:33.372Z,18
2019-05-25T16:12:33.401Z,21
2019-05-25T16:17:33.530Z,20
2019-05-25T16:22:33.424Z,18
2019-05-25T16:27:44.861Z,18
2019-05-25T16:32:33.409Z,21
2019-05-25T16:37:34.034Z,19
2019-05-25T16:42:33.366Z,16
2019-05-25T16:47:34.468Z,22
2019-05-25T16:52:34.260Z,20
2019-05-25T16:57:33.367Z,22
2019-05-25T17:02:33.378Z,22
2019-05-25T17:07:33.374Z,22
2019-05-25T17:12:33.356Z,21
2019-05-25T17:17:33.453Z,21
2019-05-25T17:22:33.363Z,21
2019-05-25T17:27:33.352Z,24
2019-05-25T17:32:33.771Z,25
2019-05-25T17:37:33.370Z,24
2019-05-25T17:42:33.317Z,28
2019-05-25T17:47:33.340Z,27
2019-05-25T17:52:33.345Z,29
2019-05-25T17:57:33.338Z,30
2019-05-25T18:02:33.295Z,30
2019-05-25T18:07:33.302Z,29
2019-05-25T18:12:33.316Z,35
2019-05-25T18:17:33.271Z,37
2019-05-25T18:22:33.313Z,32
2019-05-25T18:27:33.273Z,35
2019-05-25T18:32:33.291Z,33
2019-05-25T18:37:33.286Z,33
2019-05-25T18:42:36.535Z,32
2019-05-25T18:47:33.319Z,33
2019-05-25T18:52:33.839Z,28
2019-05-25T18:57:35.055Z,28
2019-05-25T19:02:35.072Z,32
2019-05-25T19:07:35.078Z,30
2019-05-25T19:12:35.070Z,26
2019-05-25T19:17:39.433Z,31
2019-05-25T19:22:35.874Z,29
2019-05-25T19:27:36.173Z,32
2019-05-25T19:32:35.950Z,32
2019-05-25T19:37:35.827Z,33
2019-05-25T19:42:35.856Z,32
2019-05-25T19:47:35.827Z,33
2019-05-25T19:52:36.501Z,31
2019-05-25T19:57:37.022Z,32
2019-05-25T20:02:36.963Z,32
2019-05-25T20:07:36.957Z,29
2019-05-25T20:12:37.020Z,30
2019-05-25T20:17:36.963Z,29
2019-05-25T20:22:36.994Z,31
2019-05-25T20:27:36.987Z,29
2019-05-25T20:32:38.055Z,28
2019-05-25T20:37:37.963Z,30
2019-05-25T20:42:37.961Z,28
2019-05-25T20:47:37.955Z,32
2019-05-25T20:52:37.916Z,29
2019-05-25T20:57:37.963Z,27
2019-05-25T21:02:37.930Z,28
2019-05-25T21:07:37.929Z,25
2019-05-25T21:12:37.924Z,28
2019-05-25T21:17:37.941Z,30
2019-05-25T21:22:37.925Z,28
2019-05-25T21:27:38.547Z,23
2019-05-25T21:32:38.555Z,27
2019-05-25T21:37:44.565Z,25
2019-05-25T21:42:38.503Z,23
2019-05-25T21:47:38.465Z,26
2019-05-25T21:52:38.466Z,26
2019-05-25T21:57:38.467Z,26
2019-05-25T22:07:39.015Z,25
2019-05-25T22:12:42.514Z,27
2019-05-25T22:17:39.128Z,28
2019-05-25T22:22:39.011Z,26
2019-05-25T22:27:38.995Z,25
2019-05-25T22:32:38.941Z,23
2019-05-25T22:37:38.975Z,25
2019-05-25T22:42:39.015Z,25
2019-05-25T22:47:38.985Z,27
2019-05-25T22:52:38.951Z,36
2019-05-25T22:57:38.976Z,26
2019-05-25T23:02:38.993Z,26
2019-05-25T23:07:38.938Z,30
2019-05-25T23:12:38.955Z,31
2019-05-25T23:17:38.993Z,30
2019-05-25T23:22:38.973Z,30
2019-05-25T23:27:44.531Z,31
2019-05-25T23:32:44.488Z,32
2019-05-25T23:37:44.432Z,31
2019-05-25T23:42:44.451Z,46
2019-05-25T23:47:44.494Z,36
2019-05-25T23:52:44.457Z,35
2019-05-25T23:57:44.428Z,32
